Time;durP1;ratioP1;P1;durP2;ratioP2;P2;SDS_P1;SDS_P2;PMS_P1;PMS_P2;Temp;Humidity;BMP_temperature;BMP_pressure;BME280_temperature;BME280_humidity;BME280_pressure;Samples;Min_cycle;Max_cycle;Signal;HPM_P1;HPM_P2
2022/08/22 00:00:59;;;;;;;3.03;1.85;;;;;;;;;;4992518;28;20134;-51
2022/08/22 00:03:31;;;;;;;4.40;2.03;;;;;;;;;;4993218;28;20487;-43
2022/08/22 00:06:05;;;;;;;4.32;2.50;;;;;;;;;;4995997;28;20026;-51
2022/08/22 00:08:37;;;;;;;4.35;2.05;;;;;;;;;;4993274;28;20081;-44
2022/08/22 00:11:17;;;;;;;3.67;2.03;;;;;;;;;;4990557;28;20034;-43
2022/08/22 00:13:54;;;;;;;5.00;1.88;;;;;;;;;;4991102;28;20108;-44
2022/08/22 00:16:28;;;;;;;4.22;1.90;;;;;;;;;;4992186;28;20491;-43
2022/08/22 00:19:07;;;;;;;3.50;2.10;;;;;;;;;;4990143;28;20099;-43
2022/08/22 00:21:42;;;;;;;3.03;1.77;;;;;;;;;;4993251;28;20034;-44
2022/08/22 00:24:26;;;;;;;4.28;2.50;;;;;;;;;;4992274;28;20391;-43
2022/08/22 00:26:57;;;;;;;4.07;2.13;;;;;;;;;;4993770;28;20037;-44
2022/08/22 00:29:26;;;;;;;3.30;1.90;;;;;;;;;;4990066;28;20487;-45
2022/08/22 00:32:00;;;;;;;3.60;2.20;;;;;;;;;;4991395;28;20044;-45
2022/08/22 00:34:34;;;;;;;4.78;1.98;;;;;;;;;;4992867;28;20106;-44
2022/08/22 00:37:06;;;;;;;3.67;2.20;;;;;;;;;;4992146;28;20053;-49
2022/08/22 00:39:48;;;;;;;4.25;2.05;;;;;;;;;;4992277;28;20088;-44
2022/08/22 00:42:33;;;;;;;3.63;2.35;;;;;;;;;;4992422;28;20367;-45
2022/08/22 00:44:59;;;;;;;3.20;2.30;;;;;;;;;;4992436;28;20031;-50
2022/08/22 00:47:35;;;;;;;3.20;1.80;;;;;;;;;;4993241;28;20137;-44
2022/08/22 00:50:30;;;;;;;3.00;2.00;;;;;;;;;;4984567;28;20030;-50
2022/08/22 00:53:02;;;;;;;3.63;2.10;;;;;;;;;;4985415;28;20431;-44
2022/08/22 00:55:37;;;;;;;2.47;1.80;;;;;;;;;;4992854;28;20037;-44
2022/08/22 00:58:06;;;;;;;4.18;2.60;;;;;;;;;;4991759;28;20018;-43
2022/08/22 01:00:40;;;;;;;2.97;1.95;;;;;;;;;;4989696;28;20034;-44
2022/08/22 01:03:15;;;;;;;2.88;2.00;;;;;;;;;;4992062;28;20368;-44
2022/08/22 01:05:44;;;;;;;4.20;2.13;;;;;;;;;;4993975;28;20026;-44
2022/08/22 01:08:10;;;;;;;4.35;2.75;;;;;;;;;;4991626;28;20018;-45
2022/08/22 01:10:55;;;;;;;3.80;2.17;;;;;;;;;;4992402;28;20035;-44
2022/08/22 01:13:35;;;;;;;4.10;2.13;;;;;;;;;;4991723;28;20299;-44
2022/08/22 01:16:27;;;;;;;2.88;2.00;;;;;;;;;;4990628;28;20049;-50
2022/08/22 01:19:08;;;;;;;3.55;2.25;;;;;;;;;;4945015;28;21217;-44
2022/08/22 01:21:40;;;;;;;4.30;2.43;;;;;;;;;;4994731;28;20109;-44
2022/08/22 01:24:06;;;;;;;6.05;2.33;;;;;;;;;;4991399;28;20106;-44
2022/08/22 01:26:32;;;;;;;5.07;2.05;;;;;;;;;;4992413;28;20105;-44
2022/08/22 01:29:17;;;;;;;3.88;2.03;;;;;;;;;;4992184;28;20035;-47
2022/08/22 01:32:01;;;;;;;2.80;1.90;;;;;;;;;;4990502;28;20439;-44
2022/08/22 01:34:40;;;;;;;3.05;2.38;;;;;;;;;;4985031;28;20456;-44
2022/08/22 01:37:06;;;;;;;2.25;1.73;;;;;;;;;;4987685;28;20034;-44
2022/08/22 01:39:35;;;;;;;4.50;2.05;;;;;;;;;;4991979;28;20546;-44
2022/08/22 01:42:01;;;;;;;3.00;2.05;;;;;;;;;;4991456;28;20034;-50
2022/08/22 01:44:27;;;;;;;2.75;1.90;;;;;;;;;;4991696;28;20042;-44
2022/08/22 01:47:15;;;;;;;2.70;1.90;;;;;;;;;;4992116;28;20115;-44
2022/08/22 01:50:02;;;;;;;3.50;2.20;;;;;;;;;;4992311;28;20030;-44
2022/08/22 01:52:48;;;;;;;4.25;2.30;;;;;;;;;;4992050;28;20038;-44
2022/08/22 01:55:14;;;;;;;2.88;1.98;;;;;;;;;;4992367;28;20031;-44
2022/08/22 01:57:54;;;;;;;2.85;1.90;;;;;;;;;;4992018;28;20069;-45
2022/08/22 02:00:21;;;;;;;4.43;2.50;;;;;;;;;;4990590;28;20057;-44
2022/08/22 02:03:19;;;;;;;2.78;2.25;;;;;;;;;;4992298;28;20054;-45
2022/08/22 02:05:49;;;;;;;2.75;1.90;;;;;;;;;;4942373;28;20518;-44
2022/08/22 02:08:26;;;;;;;3.45;2.45;;;;;;;;;;4991198;28;20034;-44
2022/08/22 02:10:56;;;;;;;4.05;1.95;;;;;;;;;;4992605;28;20460;-46
2022/08/22 02:13:22;;;;;;;4.93;2.33;;;;;;;;;;4989130;28;20034;-44
2022/08/22 02:16:21;;;;;;;3.80;1.98;;;;;;;;;;4991558;28;20025;-44
2022/08/22 02:18:56;;;;;;;3.15;1.95;;;;;;;;;;4943009;28;20035;-45
2022/08/22 02:21:26;;;;;;;2.30;1.60;;;;;;;;;;4991376;28;20026;-44
2022/08/22 02:23:55;;;;;;;3.58;1.92;;;;;;;;;;4991167;28;20487;-44
2022/08/22 02:26:24;;;;;;;4.13;2.00;;;;;;;;;;4991794;28;20026;-44
2022/08/22 02:28:51;;;;;;;5.00;2.00;;;;;;;;;;4996410;28;20027;-44
2022/08/22 02:31:38;;;;;;;2.88;1.98;;;;;;;;;;4994983;28;20081;-44
2022/08/22 02:34:22;;;;;;;2.88;2.15;;;;;;;;;;4992987;28;20034;-50
2022/08/22 02:37:02;;;;;;;3.30;2.03;;;;;;;;;;4996343;28;20088;-44
2022/08/22 02:39:41;;;;;;;3.55;2.50;;;;;;;;;;4996589;28;20026;-44
2022/08/22 02:42:14;;;;;;;7.07;2.35;;;;;;;;;;4995967;28;20547;-45
2022/08/22 02:45:06;;;;;;;3.00;1.85;;;;;;;;;;4996241;28;20034;-48
2022/08/22 02:47:32;;;;;;;;;;;;;;;;;;4959580;28;20495;-44
2022/08/22 02:50:17;;;;;;;2.97;1.90;;;;;;;;;;4997075;28;19910;-44
2022/08/22 02:52:58;;;;;;;3.03;2.40;;;;;;;;;;4994779;28;20038;-44
2022/08/22 02:55:27;;;;;;;3.67;2.03;;;;;;;;;;4992717;28;20088;-45
2022/08/22 02:58:00;;;;;;;4.47;1.90;;;;;;;;;;4996331;28;20372;-44
2022/08/22 03:00:27;;;;;;;3.88;2.40;;;;;;;;;;4991751;28;20124;-43
2022/08/22 03:02:56;;;;;;;4.18;2.47;;;;;;;;;;4993383;28;20034;-43
2022/08/22 03:05:25;;;;;;;4.68;2.20;;;;;;;;;;4990871;28;20439;-43
2022/08/22 03:08:17;;;;;;;3.45;2.03;;;;;;;;;;4993581;28;20435;-44
2022/08/22 03:10:45;;;;;;;4.65;2.63;;;;;;;;;;4989926;28;20557;-43
2022/08/22 03:13:32;;;;;;;4.82;2.35;;;;;;;;;;4991278;28;20033;-43
2022/08/22 03:16:00;;;;;;;3.60;2.05;;;;;;;;;;4991369;28;20554;-45
2022/08/22 03:18:26;;;;;;;3.22;1.80;;;;;;;;;;4996072;28;20034;-43
2022/08/22 03:20:57;;;;;;;4.15;2.13;;;;;;;;;;4999920;28;20030;-44
2022/08/22 03:23:24;;;;;;;;;;;;;;;;;;4997163;28;20026;-43
2022/08/22 03:25:56;;;;;;;4.53;2.20;;;;;;;;;;4997452;28;20271;-43
2022/08/22 03:28:36;;;;;;;3.45;2.00;;;;;;;;;;4997524;28;20030;-43
2022/08/22 03:31:14;;;;;;;3.45;2.05;;;;;;;;;;4999140;28;20033;-43
2022/08/22 03:33:40;;;;;;;3.72;2.33;;;;;;;;;;4997963;28;20371;-43
2022/08/22 03:36:30;;;;;;;2.95;2.15;;;;;;;;;;4994272;28;20030;-46
2022/08/22 03:39:07;;;;;;;3.65;2.03;;;;;;;;;;4994946;28;20030;-44
2022/08/22 03:41:51;;;;;;;4.40;2.22;;;;;;;;;;4999303;28;20030;-43
2022/08/22 03:44:23;;;;;;;4.63;2.35;;;;;;;;;;4998486;28;20037;-43
2022/08/22 03:46:49;;;;;;;;;;;;;;;;;;5001610;28;20029;-44
2022/08/22 03:49:26;;;;;;;3.15;2.10;;;;;;;;;;4998300;28;19918;-44
2022/08/22 03:51:55;;;;;;;3.25;2.40;;;;;;;;;;4999232;28;20038;-44
2022/08/22 03:54:39;;;;;;;4.50;2.55;;;;;;;;;;4999426;28;20467;-44
2022/08/22 03:57:20;;;;;;;4.47;2.35;;;;;;;;;;5000525;28;20275;-44
2022/08/22 03:59:55;;;;;;;5.53;3.72;;;;;;;;;;5000090;28;20022;-44
2022/08/22 04:02:27;;;;;;;6.18;1.98;;;;;;;;;;5000781;28;20030;-44
2022/08/22 04:04:53;;;;;;;3.97;2.72;;;;;;;;;;4997606;28;20100;-44
2022/08/22 04:07:19;;;;;;;4.03;2.20;;;;;;;;;;4991008;28;20483;-44
2022/08/22 04:10:03;;;;;;;2.95;2.20;;;;;;;;;;4995494;28;20369;-44
2022/08/22 04:12:52;;;;;;;3.58;2.13;;;;;;;;;;5001615;28;20038;-44
2022/08/22 04:15:31;;;;;;;3.60;2.42;;;;;;;;;;4990218;28;20389;-44
2022/08/22 04:18:15;;;;;;;3.88;2.10;;;;;;;;;;4993140;28;20026;-39
2022/08/22 04:21:06;;;;;;;3.03;2.08;;;;;;;;;;4991643;28;20522;-39
2022/08/22 04:23:35;;;;;;;4.15;2.50;;;;;;;;;;4990689;28;20026;-39
2022/08/22 04:26:04;;;;;;;4.75;2.10;;;;;;;;;;4999175;28;20038;-39
2022/08/22 04:28:59;;;;;;;4.88;2.05;;;;;;;;;;4992785;28;20038;-40
2022/08/22 04:31:27;;;;;;;4.50;2.25;;;;;;;;;;4982076;28;20046;-39
2022/08/22 04:33:56;;;;;;;4.78;2.75;;;;;;;;;;4999085;28;20061;-40
2022/08/22 04:36:27;;;;;;;4.80;2.92;;;;;;;;;;5000231;28;20050;-39
2022/08/22 04:38:53;;;;;;;4.53;2.65;;;;;;;;;;4994039;28;20029;-40
2022/08/22 04:41:23;;;;;;;4.75;2.50;;;;;;;;;;4991674;28;20109;-40
2022/08/22 04:43:52;;;;;;;4.63;2.75;;;;;;;;;;4992990;28;20475;-39
2022/08/22 04:46:26;;;;;;;5.45;2.72;;;;;;;;;;4998513;28;20058;-39
2022/08/22 04:48:55;;;;;;;7.30;2.90;;;;;;;;;;4992092;28;20022;-39
2022/08/22 04:51:24;;;;;;;4.80;3.10;;;;;;;;;;4991691;28;20058;-40
2022/08/22 04:53:59;;;;;;;4.65;2.80;;;;;;;;;;4993123;28;20033;-40
2022/08/22 04:56:37;;;;;;;5.68;3.67;;;;;;;;;;4991886;28;20035;-40
2022/08/22 04:59:07;;;;;;;5.00;3.15;;;;;;;;;;4993278;28;20487;-40
2022/08/22 05:01:36;;;;;;;4.53;2.90;;;;;;;;;;4992479;28;20050;-40
2022/08/22 05:04:05;;;;;;;4.20;3.00;;;;;;;;;;4993625;28;20061;-40
2022/08/22 05:06:33;;;;;;;5.35;3.00;;;;;;;;;;4991857;28;20479;-39
2022/08/22 05:09:01;;;;;;;6.00;2.70;;;;;;;;;;4991943;28;20375;-39
2022/08/22 05:11:29;;;;;;;3.20;2.50;;;;;;;;;;4991371;28;20563;-40
2022/08/22 05:13:58;;;;;;;6.72;3.15;;;;;;;;;;4993900;28;20112;-39
2022/08/22 05:16:27;;;;;;;5.43;3.33;;;;;;;;;;4991391;28;20016;-39
2022/08/22 05:19:01;;;;;;;7.00;3.10;;;;;;;;;;4997751;28;20107;-39
2022/08/22 05:21:30;;;;;;;6.05;3.17;;;;;;;;;;5003728;28;20029;-40
2022/08/22 05:24:04;;;;;;;4.25;2.95;;;;;;;;;;4993096;28;20023;-40
2022/08/22 05:26:35;;;;;;;6.07;2.70;;;;;;;;;;4992263;28;20538;-40
2022/08/22 05:29:02;;;;;;;5.82;3.00;;;;;;;;;;4993998;28;20482;-40
2022/08/22 05:31:48;;;;;;;5.35;2.90;;;;;;;;;;4993680;28;20041;-39
2022/08/22 05:34:18;;;;;;;6.03;2.92;;;;;;;;;;4994322;28;20090;-39
2022/08/22 05:36:47;;;;;;;4.97;2.83;;;;;;;;;;4996889;28;20526;-40
2022/08/22 05:39:18;;;;;;;6.10;2.60;;;;;;;;;;4993207;28;20034;-39
2022/08/22 05:41:45;;;;;;;7.90;3.73;;;;;;;;;;4994505;28;20036;-40
2022/08/22 05:44:22;;;;;;;4.63;3.05;;;;;;;;;;4993708;28;20038;-43
2022/08/22 05:47:01;;;;;;;4.93;3.22;;;;;;;;;;4994191;28;20026;-39
2022/08/22 05:49:32;;;;;;;7.25;3.00;;;;;;;;;;4992960;28;20714;-39
2022/08/22 05:51:58;;;;;;;5.68;3.13;;;;;;;;;;4994111;28;20026;-39
2022/08/22 05:54:26;;;;;;;7.45;3.63;;;;;;;;;;4996357;28;20038;-40
2022/08/22 05:56:54;;;;;;;5.45;2.97;;;;;;;;;;4997305;28;20094;-40
2022/08/22 05:59:41;;;;;;;7.78;3.17;;;;;;;;;;4995670;28;20097;-40
2022/08/22 06:02:10;;;;;;;5.32;3.00;;;;;;;;;;4986425;28;20048;-45
2022/08/22 06:04:56;;;;;;;4.65;3.13;;;;;;;;;;4993056;28;20025;-41
2022/08/22 06:07:25;;;;;;;5.05;2.95;;;;;;;;;;4988682;28;20022;-40
2022/08/22 06:09:51;;;;;;;7.50;3.13;;;;;;;;;;5002182;28;20101;-39
2022/08/22 06:12:20;;;;;;;8.73;3.85;;;;;;;;;;4998840;28;20070;-40
2022/08/22 06:14:49;;;;;;;7.10;3.10;;;;;;;;;;4995597;28;20037;-38
2022/08/22 06:17:17;;;;;;;5.70;3.28;;;;;;;;;;4994341;28;20553;-38
2022/08/22 06:19:48;;;;;;;4.90;2.83;;;;;;;;;;4995719;28;20026;-38
2022/08/22 06:22:20;;;;;;;4.10;2.90;;;;;;;;;;4995505;28;20065;-39
2022/08/22 06:24:47;;;;;;;4.03;2.67;;;;;;;;;;4987584;28;20080;-39
2022/08/22 06:27:15;;;;;;;3.15;2.42;;;;;;;;;;4995990;28;20095;-38
2022/08/22 06:29:48;;;;;;;5.50;3.20;;;;;;;;;;4995414;28;20023;-39
2022/08/22 06:32:25;;;;;;;7.88;3.08;;;;;;;;;;4995222;28;20517;-39
2022/08/22 06:34:53;;;;;;;5.90;2.67;;;;;;;;;;4987363;28;20101;-38
2022/08/22 06:37:27;;;;;;;4.10;2.80;;;;;;;;;;4991804;28;20030;-39
2022/08/22 06:39:53;;;;;;;3.95;2.70;;;;;;;;;;4995877;28;20044;-39
2022/08/22 06:42:23;;;;;;;5.20;2.58;;;;;;;;;;4996945;28;20126;-38
2022/08/22 06:44:52;;;;;;;10.68;2.80;;;;;;;;;;4993491;28;20037;-38
2022/08/22 06:47:26;;;;;;;8.07;2.72;;;;;;;;;;4996736;28;20093;-38
2022/08/22 06:49:55;;;;;;;4.05;2.65;;;;;;;;;;4991344;28;20030;-38
2022/08/22 06:52:24;;;;;;;4.43;2.42;;;;;;;;;;4996797;28;20038;-39
2022/08/22 06:54:54;;;;;;;5.25;2.47;;;;;;;;;;4998279;28;20430;-38
2022/08/22 06:57:35;;;;;;;3.92;2.45;;;;;;;;;;4997519;28;20037;-38
2022/08/22 07:00:05;;;;;;;6.45;2.22;;;;;;;;;;4991653;28;20105;-38
2022/08/22 07:02:37;;;;;;;4.53;2.75;;;;;;;;;;4999751;28;20026;-38
2022/08/22 07:05:04;;;;;;;9.77;3.00;;;;;;;;;;4992341;28;20033;-38
2022/08/22 07:07:30;;;;;;;5.47;2.38;;;;;;;;;;4996686;28;20057;-38
2022/08/22 07:09:56;;;;;;;3.92;2.30;;;;;;;;;;4998300;28;20073;-39
2022/08/22 07:12:25;;;;;;;3.85;2.22;;;;;;;;;;4998671;28;20045;-38
2022/08/22 07:14:52;;;;;;;6.78;3.55;;;;;;;;;;4982713;28;20372;-38
2022/08/22 07:17:26;;;;;;;4.53;2.60;;;;;;;;;;4999304;28;20045;-38
2022/08/22 07:19:55;;;;;;;3.92;2.67;;;;;;;;;;4996934;28;20023;-38
2022/08/22 07:22:23;;;;;;;5.85;2.72;;;;;;;;;;4993809;28;20378;-39
2022/08/22 07:25:09;;;;;;;4.25;2.65;;;;;;;;;;5004139;28;20022;-40
2022/08/22 07:27:54;;;;;;;5.45;2.30;;;;;;;;;;4994615;28;20026;-42
2022/08/22 07:30:21;;;;;;;5.32;2.42;;;;;;;;;;5000846;28;20044;-39
2022/08/22 07:33:01;;;;;;;3.22;1.92;;;;;;;;;;4987112;28;20030;-39
2022/08/22 07:35:29;;;;;;;3.88;2.33;;;;;;;;;;4997419;28;20046;-39
2022/08/22 07:38:13;;;;;;;3.10;2.10;;;;;;;;;;4998506;28;20699;-40
2022/08/22 07:40:39;;;;;;;5.03;2.05;;;;;;;;;;4989037;28;20034;-39
2022/08/22 07:43:24;;;;;;;4.25;1.98;;;;;;;;;;4998644;28;20030;-40
2022/08/22 07:45:52;;;;;;;7.10;2.70;;;;;;;;;;4996248;28;20030;-40
2022/08/22 07:48:26;;;;;;;3.58;2.33;;;;;;;;;;4995854;28;20034;-40
2022/08/22 07:50:57;;;;;;;3.55;2.28;;;;;;;;;;4997708;28;20030;-40
2022/08/22 07:53:27;;;;;;;3.33;1.90;;;;;;;;;;4997810;28;20033;-40
2022/08/22 07:55:54;;;;;;;3.75;2.20;;;;;;;;;;4999749;28;20030;-41
2022/08/22 07:58:21;;;;;;;5.10;2.20;;;;;;;;;;4998703;28;20026;-42
2022/08/22 08:00:48;;;;;;;4.63;2.03;;;;;;;;;;4988423;28;20117;-41
2022/08/22 08:03:14;;;;;;;4.35;2.38;;;;;;;;;;4991943;28;20030;-42
2022/08/22 08:05:43;;;;;;;3.80;1.92;;;;;;;;;;4999799;28;20475;-41
2022/08/22 08:08:19;;;;;;;4.50;2.00;;;;;;;;;;4985826;28;20030;-44
2022/08/22 08:10:46;;;;;;;4.65;2.28;;;;;;;;;;4991732;28;20026;-42
2022/08/22 08:13:15;;;;;;;2.42;1.77;;;;;;;;;;4993439;28;20031;-42
2022/08/22 08:15:44;;;;;;;2.50;2.10;;;;;;;;;;4988006;28;20050;-43
2022/08/22 08:18:13;;;;;;;6.75;2.40;;;;;;;;;;4990299;28;20018;-44
2022/08/22 08:20:39;;;;;;;4.95;2.45;;;;;;;;;;4994540;28;20423;-43
2022/08/22 08:23:06;;;;;;;2.88;2.00;;;;;;;;;;4997194;28;20487;-42
2022/08/22 08:25:36;;;;;;;4.43;2.35;;;;;;;;;;4997595;28;20037;-41
2022/08/22 08:30:56;;;;;;;3.05;2.13;;;;;;;;;;5001444;28;20028;-42
2022/08/22 08:33:24;;;;;;;3.50;2.47;;;;;;;;;;4991902;28;20476;-42
2022/08/22 08:35:55;;;;;;;4.93;2.95;;;;;;;;;;4998779;28;20026;-41
2022/08/22 08:38:22;;;;;;;9.32;2.78;;;;;;;;;;5002351;28;20030;-41
2022/08/22 08:41:12;;;;;;;3.35;2.08;;;;;;;;;;4996428;28;20026;-42
2022/08/22 08:44:02;;;;;;;4.63;2.70;;;;;;;;;;4993170;28;20029;-43
2022/08/22 08:46:40;;;;;;;6.63;2.45;;;;;;;;;;4993246;28;20026;-42
2022/08/22 08:49:18;;;;;;;5.85;2.45;;;;;;;;;;4992327;28;20034;-44
2022/08/22 08:52:00;;;;;;;4.03;2.30;;;;;;;;;;4992335;28;20026;-42
2022/08/22 08:54:55;;;;;;;3.13;1.95;;;;;;;;;;4987428;28;20209;-41
2022/08/22 08:57:37;;;;;;;3.47;2.20;;;;;;;;;;4920834;28;20036;-41
2022/08/22 09:00:13;;;;;;;4.82;2.33;;;;;;;;;;4998023;28;20057;-41
2022/08/22 09:02:39;;;;;;;2.88;2.40;;;;;;;;;;4986119;28;20375;-43
2022/08/22 09:05:15;;;;;;;4.25;2.42;;;;;;;;;;4990200;28;20034;-43
2022/08/22 09:07:50;;;;;;;3.92;2.53;;;;;;;;;;5000293;28;20030;-41
2022/08/22 09:10:22;;;;;;;3.60;2.40;;;;;;;;;;4991483;28;20379;-41
2022/08/22 09:13:00;;;;;;;3.40;2.15;;;;;;;;;;4993093;28;20062;-42
2022/08/22 09:15:33;;;;;;;4.80;2.38;;;;;;;;;;4992250;28;20109;-42
2022/08/22 09:18:14;;;;;;;7.05;1.85;;;;;;;;;;4994012;28;20030;-41
2022/08/22 09:20:55;;;;;;;3.15;2.50;;;;;;;;;;4986468;28;20105;-41
2022/08/22 09:23:40;;;;;;;4.15;2.05;;;;;;;;;;4991142;28;20034;-42
2022/08/22 09:26:06;;;;;;;4.13;2.13;;;;;;;;;;4995036;28;20442;-45
2022/08/22 09:28:44;;;;;;;2.85;2.30;;;;;;;;;;4996197;28;20046;-41
2022/08/22 09:31:26;;;;;;;3.47;2.22;;;;;;;;;;4995055;28;20036;-46
2022/08/22 09:34:11;;;;;;;3.30;2.05;;;;;;;;;;4992221;28;20121;-42
2022/08/22 09:36:56;;;;;;;3.05;2.10;;;;;;;;;;4991106;28;20117;-42
2022/08/22 09:39:40;;;;;;;3.20;2.20;;;;;;;;;;4996201;28;20031;-41
2022/08/22 09:42:19;;;;;;;3.05;2.22;;;;;;;;;;4998194;28;20038;-45
2022/08/22 09:44:57;;;;;;;5.22;3.20;;;;;;;;;;5001361;28;20030;-42
2022/08/22 09:47:29;;;;;;;3.25;2.30;;;;;;;;;;4991460;28;20030;-42
2022/08/22 09:50:04;;;;;;;3.15;2.58;;;;;;;;;;4991499;28;20037;-41
2022/08/22 09:52:48;;;;;;;3.47;2.45;;;;;;;;;;4993676;28;20034;-41
2022/08/22 09:55:17;;;;;;;3.20;2.28;;;;;;;;;;4995059;28;20041;-42
2022/08/22 09:57:50;;;;;;;3.40;2.15;;;;;;;;;;4995562;28;20057;-42
2022/08/22 10:00:22;;;;;;;2.97;2.15;;;;;;;;;;4998131;28;20614;-42
2022/08/22 10:03:04;;;;;;;4.47;2.88;;;;;;;;;;4995229;28;20057;-42
2022/08/22 10:05:33;;;;;;;4.05;2.22;;;;;;;;;;4992996;28;20042;-42
2022/08/22 10:08:11;;;;;;;4.53;2.35;;;;;;;;;;4998207;28;20034;-42
2022/08/22 10:10:40;;;;;;;3.78;2.42;;;;;;;;;;5002080;28;20391;-42
2022/08/22 10:13:16;;;;;;;4.95;2.83;;;;;;;;;;4999709;28;20091;-44
2022/08/22 10:15:47;;;;;;;4.28;2.42;;;;;;;;;;4990149;28;20061;-41
2022/08/22 10:18:31;;;;;;;3.33;2.20;;;;;;;;;;4991537;28;20035;-41
2022/08/22 10:21:10;;;;;;;3.22;2.40;;;;;;;;;;4992904;28;20030;-42
2022/08/22 10:23:38;;;;;;;10.38;3.22;;;;;;;;;;4992677;28;20026;-43
2022/08/22 10:26:28;;;;;;;2.80;2.10;;;;;;;;;;4993855;28;20113;-42
2022/08/22 10:28:56;;;;;;;3.20;2.40;;;;;;;;;;4969912;28;20510;-41
2022/08/22 10:31:26;;;;;;;6.07;2.20;;;;;;;;;;4997590;28;20026;-42
2022/08/22 10:34:04;;;;;;;2.33;1.88;;;;;;;;;;4999005;28;20027;-42
2022/08/22 10:36:49;;;;;;;2.78;2.00;;;;;;;;;;4983902;28;20034;-43
2022/08/22 10:39:21;;;;;;;3.25;2.25;;;;;;;;;;4989907;28;20040;-41
2022/08/22 10:42:01;;;;;;;2.92;1.98;;;;;;;;;;4991688;28;20026;-41
2022/08/22 10:44:38;;;;;;;3.45;2.15;;;;;;;;;;4990477;28;20570;-42
2022/08/22 10:47:16;;;;;;;2.97;2.08;;;;;;;;;;4992911;28;20023;-44
2022/08/22 10:49:45;;;;;;;4.15;2.45;;;;;;;;;;4996333;28;20019;-41
2022/08/22 10:52:14;;;;;;;2.42;1.70;;;;;;;;;;4997875;28;20039;-42
2022/08/22 10:54:57;;;;;;;2.10;1.85;;;;;;;;;;4998764;28;20036;-44
2022/08/22 10:57:40;;;;;;;3.63;1.95;;;;;;;;;;4997083;28;20041;-42
2022/08/22 11:00:10;;;;;;;2.83;2.28;;;;;;;;;;4998442;28;20053;-46
2022/08/22 11:02:42;;;;;;;3.70;1.90;;;;;;;;;;5003120;28;20026;-42
2022/08/22 11:05:23;;;;;;;3.80;2.08;;;;;;;;;;4990491;28;20070;-44
2022/08/22 11:07:57;;;;;;;2.90;1.95;;;;;;;;;;4993893;28;20072;-41
2022/08/22 11:10:35;;;;;;;3.92;2.15;;;;;;;;;;4993727;28;20026;-42
2022/08/22 11:13:10;;;;;;;2.28;1.80;;;;;;;;;;4994466;28;20034;-43
2022/08/22 11:15:49;;;;;;;2.47;2.00;;;;;;;;;;4991516;28;20026;-41
2022/08/22 11:18:34;;;;;;;3.22;2.15;;;;;;;;;;4999400;28;20044;-42
2022/08/22 11:21:15;;;;;;;2.20;1.80;;;;;;;;;;5002405;28;20097;-42
2022/08/22 11:23:41;;;;;;;3.90;2.10;;;;;;;;;;4998256;28;20026;-41
2022/08/22 11:26:26;;;;;;;3.20;2.38;;;;;;;;;;4995757;28;20276;-44
2022/08/22 11:28:55;;;;;;;4.78;1.80;;;;;;;;;;4998164;28;20033;-42
2022/08/22 11:31:40;;;;;;;3.03;2.28;;;;;;;;;;5000198;28;20034;-41
2022/08/22 11:34:28;;;;;;;3.33;2.22;;;;;;;;;;4995643;28;20030;-44
2022/08/22 11:36:56;;;;;;;2.78;2.00;;;;;;;;;;5000531;28;20049;-41
2022/08/22 11:39:34;;;;;;;3.08;2.00;;;;;;;;;;5002665;28;20041;-41
2022/08/22 11:42:06;;;;;;;2.92;2.22;;;;;;;;;;5001149;28;20026;-42
2022/08/22 11:44:36;;;;;;;2.78;2.08;;;;;;;;;;5000916;28;20092;-42
2022/08/22 11:47:07;;;;;;;2.90;1.70;;;;;;;;;;4993934;28;20442;-41
2022/08/22 11:49:39;;;;;;;2.97;1.95;;;;;;;;;;4994326;28;20022;-42
2022/08/22 11:52:08;;;;;;;2.40;1.80;;;;;;;;;;4995095;28;20042;-42
2022/08/22 11:54:52;;;;;;;2.08;1.70;;;;;;;;;;4995396;28;20018;-41
2022/08/22 11:57:37;;;;;;;4.00;2.45;;;;;;;;;;4994315;28;20465;-41
2022/08/22 12:00:12;;;;;;;3.22;2.00;;;;;;;;;;4995817;28;20104;-43
2022/08/22 12:02:43;;;;;;;2.83;1.92;;;;;;;;;;4996718;28;20113;-41
2022/08/22 12:05:17;;;;;;;2.10;1.80;;;;;;;;;;5000469;28;20034;-45
2022/08/22 12:07:49;;;;;;;3.08;1.83;;;;;;;;;;4998238;28;20833;-43
2022/08/22 12:10:17;;;;;;;2.67;2.00;;;;;;;;;;4997267;28;20100;-41
2022/08/22 12:12:46;;;;;;;2.75;1.90;;;;;;;;;;4998667;28;20053;-41
2022/08/22 12:15:21;;;;;;;2.60;2.03;;;;;;;;;;4987951;28;20033;-41
2022/08/22 12:18:07;;;;;;;2.13;1.77;;;;;;;;;;4999805;28;20074;-44
2022/08/22 12:20:45;;;;;;;2.75;2.10;;;;;;;;;;4992887;28;20058;-42
2022/08/22 12:23:23;;;;;;;3.03;2.10;;;;;;;;;;5000369;28;20075;-42
2022/08/22 12:25:57;;;;;;;2.70;2.00;;;;;;;;;;4995354;28;20053;-44
2022/08/22 12:28:38;;;;;;;2.10;1.73;;;;;;;;;;4988015;28;20034;-42
2022/08/22 12:31:26;;;;;;;4.78;2.47;;;;;;;;;;4994138;28;20502;-41
2022/08/22 12:34:03;;;;;;;2.85;1.67;;;;;;;;;;4994962;28;20088;-42
2022/08/22 12:36:41;;;;;;;3.13;2.33;;;;;;;;;;4991025;28;20041;-43
2022/08/22 12:39:22;;;;;;;2.67;2.17;;;;;;;;;;4994817;28;20034;-46
2022/08/22 12:42:05;;;;;;;3.40;2.20;;;;;;;;;;4992718;28;20157;-41
2022/08/22 12:44:37;;;;;;;2.90;1.92;;;;;;;;;;4995486;28;20042;-41
2022/08/22 12:47:03;;;;;;;2.45;1.98;;;;;;;;;;4994773;28;20022;-41
2022/08/22 12:49:37;;;;;;;2.00;1.73;;;;;;;;;;4999242;28;20506;-41
2022/08/22 12:52:15;;;;;;;2.38;1.83;;;;;;;;;;4993500;28;20030;-42
2022/08/22 12:54:53;;;;;;;3.22;2.20;;;;;;;;;;4993907;28;20026;-41
2022/08/22 12:57:19;;;;;;;2.97;2.22;;;;;;;;;;4992537;28;20438;-41
2022/08/22 12:59:48;;;;;;;2.42;2.03;;;;;;;;;;4995073;28;20114;-42
2022/08/22 13:02:19;;;;;;;1.98;1.55;;;;;;;;;;4994494;28;20427;-42
2022/08/22 13:04:52;;;;;;;3.33;1.90;;;;;;;;;;4995294;28;20474;-41
2022/08/22 13:07:27;;;;;;;4.47;1.60;;;;;;;;;;4991758;28;20383;-41
2022/08/22 13:10:08;;;;;;;2.72;1.98;;;;;;;;;;4993135;28;20475;-41
2022/08/22 13:12:39;;;;;;;1.90;1.73;;;;;;;;;;4993104;28;20060;-42
2022/08/22 13:15:25;;;;;;;3.55;2.20;;;;;;;;;;4996689;28;20034;-44
2022/08/22 13:17:52;;;;;;;3.17;2.22;;;;;;;;;;4940003;28;20042;-41
2022/08/22 13:20:25;;;;;;;2.83;2.25;;;;;;;;;;4994686;28;20038;-42
2022/08/22 13:22:52;;;;;;;2.13;1.92;;;;;;;;;;4997062;28;20053;-41
2022/08/22 13:25:21;;;;;;;2.65;1.90;;;;;;;;;;4998469;28;20029;-41
2022/08/22 13:27:49;;;;;;;2.22;1.98;;;;;;;;;;4998293;28;20021;-41
2022/08/22 13:30:22;;;;;;;2.38;1.92;;;;;;;;;;4976064;28;20495;-42
2022/08/22 13:33:09;;;;;;;2.00;1.40;;;;;;;;;;4981245;28;20386;-42
2022/08/22 13:35:38;;;;;;;2.33;1.90;;;;;;;;;;4986884;28;20096;-41
2022/08/22 13:38:07;;;;;;;2.80;2.25;;;;;;;;;;4997434;28;20031;-42
2022/08/22 13:40:33;;;;;;;2.53;1.98;;;;;;;;;;4997145;28;20097;-41
2022/08/22 13:43:05;;;;;;;2.38;1.95;;;;;;;;;;4999495;28;20387;-41
2022/08/22 13:45:32;;;;;;;2.00;1.60;;;;;;;;;;4996078;28;20028;-41
2022/08/22 13:48:00;;;;;;;2.55;1.90;;;;;;;;;;4998316;28;20113;-41
2022/08/22 13:50:27;;;;;;;3.40;2.08;;;;;;;;;;4992209;28;20046;-41
2022/08/22 13:53:22;;;;;;;2.08;1.73;;;;;;;;;;4999562;28;20058;-42
2022/08/22 13:55:50;;;;;;;2.47;1.77;;;;;;;;;;4991766;28;20427;-41
2022/08/22 13:58:19;;;;;;;2.25;1.95;;;;;;;;;;4991655;28;20026;-41
2022/08/22 14:01:04;;;;;;;2.67;1.80;;;;;;;;;;4991463;28;20073;-41
2022/08/22 14:03:53;;;;;;;2.72;2.10;;;;;;;;;;4994744;28;20378;-44
2022/08/22 14:06:24;;;;;;;2.10;1.88;;;;;;;;;;4991688;28;20361;-43
2022/08/22 14:08:53;;;;;;;2.90;2.25;;;;;;;;;;4996614;28;20427;-41
2022/08/22 14:11:34;;;;;;;2.33;1.63;;;;;;;;;;4990506;28;20379;-41
2022/08/22 14:14:03;;;;;;;3.55;2.30;;;;;;;;;;4992223;28;20035;-43
2022/08/22 14:16:33;;;;;;;2.47;2.05;;;;;;;;;;4991058;28;20026;-41
2022/08/22 14:19:07;;;;;;;3.08;2.13;;;;;;;;;;4994805;28;20033;-41
2022/08/22 14:21:38;;;;;;;2.67;1.70;;;;;;;;;;4989665;28;20022;-41
2022/08/22 14:24:22;;;;;;;2.67;2.10;;;;;;;;;;4996289;28;20081;-42
2022/08/22 14:27:04;;;;;;;2.20;1.90;;;;;;;;;;4998309;28;20093;-43
2022/08/22 14:29:34;;;;;;;3.60;1.67;;;;;;;;;;4998708;28;20076;-42
2022/08/22 14:32:06;;;;;;;2.40;1.90;;;;;;;;;;4998979;28;20042;-41
2022/08/22 14:34:34;;;;;;;2.45;1.80;;;;;;;;;;4998791;28;20120;-41
2022/08/22 14:37:03;;;;;;;1.98;1.73;;;;;;;;;;5001116;28;20487;-42
2022/08/22 14:39:32;;;;;;;3.13;2.05;;;;;;;;;;5002641;28;20025;-42
2022/08/22 14:42:07;;;;;;;3.10;1.75;;;;;;;;;;5000974;28;20034;-42
2022/08/22 14:44:39;;;;;;;2.25;1.52;;;;;;;;;;5000969;28;20085;-42
2022/08/22 14:47:07;;;;;;;3.72;1.92;;;;;;;;;;4998440;28;20022;-41
2022/08/22 14:49:46;;;;;;;3.10;2.15;;;;;;;;;;5004955;28;20105;-42
2022/08/22 14:52:25;;;;;;;3.25;2.00;;;;;;;;;;4994146;28;20037;-41
2022/08/22 14:55:02;;;;;;;2.95;2.00;;;;;;;;;;4995004;28;20109;-42
2022/08/22 14:57:29;;;;;;;2.95;1.98;;;;;;;;;;4994447;28;20029;-41
2022/08/22 14:59:55;;;;;;;1.90;1.50;;;;;;;;;;4995189;28;20034;-41
2022/08/22 15:02:21;;;;;;;2.38;1.80;;;;;;;;;;4994751;28;20042;-41
2022/08/22 15:04:49;;;;;;;3.67;2.05;;;;;;;;;;4999831;28;20068;-42
2022/08/22 15:07:23;;;;;;;2.60;2.00;;;;;;;;;;4995256;28;20021;-42
2022/08/22 15:09:52;;;;;;;2.70;1.90;;;;;;;;;;4992748;28;20049;-42
2022/08/22 15:12:25;;;;;;;2.72;1.83;;;;;;;;;;4996539;28;20085;-41
2022/08/22 15:14:52;;;;;;;2.10;1.50;;;;;;;;;;4999180;28;20041;-41
2022/08/22 15:17:33;;;;;;;2.20;1.52;;;;;;;;;;5000703;28;20088;-42
2022/08/22 15:20:26;;;;;;;2.08;1.80;;;;;;;;;;4988012;28;20018;-41
2022/08/22 15:22:54;;;;;;;2.38;1.70;;;;;;;;;;4997263;28;20042;-42
2022/08/22 15:25:22;;;;;;;2.42;1.77;;;;;;;;;;4997676;28;21691;-42
2022/08/22 15:27:56;;;;;;;3.03;1.70;;;;;;;;;;4998350;28;20038;-41